createdAt,value
2017-12-14T00:02:38.910Z,96576.23
2017-12-14T00:08:42.434Z,96572.84
2017-12-14T00:14:46.726Z,96574.98
2017-12-14T00:20:50.363Z,96575.22
2017-12-14T00:26:54.788Z,96564.89
2017-12-14T00:32:58.353Z,96572.13
2017-12-14T00:39:03.644Z,96579.55
2017-12-14T00:45:07.195Z,96604.42
2017-12-14T00:51:10.707Z,96607.48
2017-12-14T00:57:15.120Z,96615.77
2017-12-14T01:03:18.699Z,96616.13
2017-12-14T01:09:22.903Z,96622.52
2017-12-14T01:15:27.528Z,96640.22
2017-12-14T01:21:31.364Z,96644.52
2017-12-14T01:27:35.026Z,96662.86
2017-12-14T01:33:38.620Z,96668.44
2017-12-14T01:39:42.496Z,96665.44
2017-12-14T01:45:46.041Z,96680.27
2017-12-14T01:51:49.587Z,96676.00
2017-12-14T01:57:53.570Z,96660.64
2017-12-14T02:03:57.934Z,96658.02
2017-12-14T02:10:01.786Z,96650.86
2017-12-14T02:16:05.379Z,96652.14
2017-12-14T02:22:08.994Z,96652.25
2017-12-14T02:28:12.519Z,96693.98
2017-12-14T02:34:16.028Z,96696.02
2017-12-14T02:40:19.649Z,96697.59
2017-12-14T02:46:23.646Z,96700.36
2017-12-14T02:52:27.239Z,96705.48
2017-12-14T02:58:31.583Z,96716.33
2017-12-14T03:04:35.125Z,96724.45
2017-12-14T03:10:38.644Z,96732.56
2017-12-14T03:16:42.204Z,96734.08
2017-12-14T03:22:45.755Z,96727.17
2017-12-14T03:28:50.933Z,96732.91
2017-12-14T03:34:54.606Z,96722.38
2017-12-14T03:40:58.168Z,96720.66
2017-12-14T03:47:01.690Z,96718.23
2017-12-14T03:53:05.959Z,96724.75
2017-12-14T03:59:10.237Z,96736.67
2017-12-14T04:05:14.622Z,96734.09
2017-12-14T04:11:18.124Z,96730.53
2017-12-14T04:17:22.108Z,96735.91
2017-12-14T04:23:25.962Z,96730.28
2017-12-14T04:29:29.661Z,96728.89
2017-12-14T04:35:33.381Z,96723.78
2017-12-14T04:41:37.751Z,96729.33
2017-12-14T04:47:41.263Z,96717.80
2017-12-14T04:53:44.866Z,96713.30
2017-12-14T04:59:48.499Z,96705.41
2017-12-14T05:05:52.294Z,96694.00
2017-12-14T05:11:56.724Z,96696.11
2017-12-14T05:18:00.242Z,96688.30
2017-12-14T05:24:04.528Z,96681.27
2017-12-14T05:30:09.005Z,96672.60
2017-12-14T05:36:12.535Z,96668.80
2017-12-14T05:42:16.104Z,96675.02
2017-12-14T05:48:20.422Z,96668.91
2017-12-14T05:54:24.012Z,96653.88
2017-12-14T06:00:28.340Z,96661.59
2017-12-14T06:06:31.863Z,96654.14
2017-12-14T06:12:35.464Z,96665.02
2017-12-14T06:18:38.990Z,96656.27
2017-12-14T06:24:43.262Z,96662.17
2017-12-14T06:30:46.862Z,96670.58
2017-12-14T06:36:50.429Z,96693.05
2017-12-14T06:42:54.365Z,96696.67
2017-12-14T06:48:57.863Z,96711.20
2017-12-14T06:55:01.355Z,96716.33
2017-12-14T07:01:04.960Z,96723.66
2017-12-14T07:07:08.516Z,96743.89
2017-12-14T07:13:12.098Z,96773.09
2017-12-14T07:19:16.986Z,96801.45
2017-12-14T07:25:20.725Z,96814.98
2017-12-14T07:31:24.362Z,96820.76
2017-12-14T07:37:27.866Z,96837.61
2017-12-14T07:43:31.441Z,96835.28
2017-12-14T07:49:34.966Z,96851.33
2017-12-14T07:55:38.525Z,96862.09
2017-12-14T08:01:42.790Z,96873.77
2017-12-14T08:07:46.277Z,96887.00
2017-12-14T08:13:49.795Z,96902.02
2017-12-14T08:19:54.350Z,96910.76
2017-12-14T08:25:57.863Z,96915.22
2017-12-14T08:32:01.507Z,96937.48
2017-12-14T08:38:05.004Z,96952.02
2017-12-14T08:44:08.503Z,96970.31
2017-12-14T08:50:12.766Z,96996.74
2017-12-14T08:56:17.078Z,97012.70
2017-12-14T09:02:20.758Z,97039.55
2017-12-14T09:08:24.378Z,97059.08
2017-12-14T09:14:28.340Z,97083.25
2017-12-14T09:20:31.937Z,97089.75
2017-12-14T09:26:35.445Z,97092.66
2017-12-14T09:32:38.939Z,97094.20
2017-12-14T09:38:42.443Z,97118.72
2017-12-14T09:44:46.740Z,97123.33
2017-12-14T09:50:50.344Z,97140.13
2017-12-14T09:56:53.953Z,97159.08
2017-12-14T10:02:57.512Z,97176.80
2017-12-14T10:09:01.163Z,97177.21
2017-12-14T10:15:04.668Z,97170.72
2017-12-14T10:21:08.166Z,97180.98
2017-12-14T10:27:11.681Z,97184.64
2017-12-14T10:33:16.019Z,97178.53
2017-12-14T10:39:19.646Z,97174.27
2017-12-14T10:45:23.210Z,97175.88
2017-12-14T10:51:26.846Z,97177.83
2017-12-14T10:57:31.136Z,97175.18
2017-12-14T11:03:34.666Z,97169.15
2017-12-14T11:09:38.952Z,97175.16
2017-12-14T11:15:43.325Z,97168.62
2017-12-14T11:21:47.686Z,97157.11
2017-12-14T11:27:52.118Z,97144.56
2017-12-14T11:33:55.728Z,97136.58
2017-12-14T11:39:59.988Z,97133.33
2017-12-14T11:46:03.629Z,97114.13
2017-12-14T11:52:07.222Z,97098.45
2017-12-14T11:58:10.712Z,97107.38
2017-12-14T12:04:14.519Z,97098.08
2017-12-14T12:10:18.050Z,97082.62
2017-12-14T12:16:22.000Z,97084.36
2017-12-14T12:22:25.800Z,97071.25
2017-12-14T12:28:30.079Z,97065.28
2017-12-14T12:34:34.332Z,97061.22
2017-12-14T12:40:37.904Z,97057.84
2017-12-14T12:46:42.198Z,97062.73
2017-12-14T12:52:45.720Z,97073.14
2017-12-14T12:58:49.390Z,97065.91
2017-12-14T13:04:54.633Z,97064.32
2017-12-14T13:10:58.168Z,97067.16
2017-12-14T13:17:01.685Z,97076.40
2017-12-14T13:23:06.032Z,97072.16
2017-12-14T13:29:09.723Z,97072.80
2017-12-14T13:35:14.036Z,97074.40
2017-12-14T13:41:17.535Z,97084.42
2017-12-14T13:47:21.395Z,97074.53
2017-12-14T13:53:25.300Z,97070.72
2017-12-14T13:59:28.852Z,97087.83
2017-12-14T14:05:32.375Z,97086.84
2017-12-14T14:11:36.638Z,97101.02
2017-12-14T14:17:40.174Z,97107.91
2017-12-14T14:23:43.662Z,97098.98
2017-12-14T14:29:47.964Z,97100.41
2017-12-14T14:35:51.497Z,97100.13
2017-12-14T14:41:55.790Z,97105.67
2017-12-14T14:47:59.338Z,97103.05
2017-12-14T14:54:02.861Z,97106.16
2017-12-14T15:00:06.399Z,97111.11
2017-12-14T15:06:09.913Z,97116.55
2017-12-14T15:12:13.479Z,97129.09
2017-12-14T15:18:17.031Z,97135.32
2017-12-14T15:24:20.587Z,97117.17
2017-12-14T15:30:24.767Z,97124.94
2017-12-14T15:36:28.325Z,97130.14
2017-12-14T15:42:31.914Z,97120.69
2017-12-14T15:48:35.435Z,97119.38
2017-12-14T15:54:39.178Z,97119.03
2017-12-14T16:00:42.812Z,97113.77
2017-12-14T16:06:47.083Z,97114.92
2017-12-14T16:12:51.754Z,97114.86
2017-12-14T16:18:55.608Z,97112.51
2017-12-14T16:24:59.169Z,97107.77
2017-12-14T16:31:02.758Z,97106.77
2017-12-14T16:37:07.081Z,97120.23
2017-12-14T16:43:10.622Z,97109.75
2017-12-14T16:49:14.132Z,97116.89
2017-12-14T16:55:17.694Z,97106.03
2017-12-14T17:01:21.970Z,97118.56
2017-12-14T17:07:25.504Z,97115.70
2017-12-14T17:13:29.771Z,97110.53
2017-12-14T17:19:34.050Z,97103.94
2017-12-14T17:25:38.387Z,97100.97
2017-12-14T17:31:41.906Z,97105.37
2017-12-14T17:37:45.446Z,97106.30
2017-12-14T17:43:49.008Z,97106.19
2017-12-14T17:49:53.739Z,97109.84
2017-12-14T17:55:57.352Z,97104.11
2017-12-14T18:02:00.870Z,97116.42
2017-12-14T18:08:05.222Z,97112.86
2017-12-14T18:14:08.700Z,97114.61
2017-12-14T18:20:13.121Z,97108.62
2017-12-14T18:26:16.765Z,97098.86
2017-12-14T18:32:20.493Z,97095.69
2017-12-14T18:38:24.086Z,97087.57
2017-12-14T18:44:27.613Z,97096.59
2017-12-14T18:50:31.876Z,97096.05
2017-12-14T18:56:36.173Z,97092.96
2017-12-14T19:02:39.832Z,97091.05
2017-12-14T19:08:43.395Z,97087.38
2017-12-14T19:14:46.910Z,97098.73
2017-12-14T19:20:51.753Z,97094.77
2017-12-14T19:26:55.518Z,97094.69
2017-12-14T19:32:59.138Z,97097.24
2017-12-14T19:39:02.904Z,97108.55
2017-12-14T19:45:06.426Z,97103.18
2017-12-14T19:51:09.978Z,97099.39
2017-12-14T19:57:14.514Z,97110.75
2017-12-14T20:03:18.899Z,97120.87
2017-12-14T20:09:22.730Z,97109.70
2017-12-14T20:15:26.422Z,97103.46
2017-12-14T20:21:29.937Z,97098.93
2017-12-14T20:27:33.468Z,97095.39
2017-12-14T20:33:37.783Z,97087.57
2017-12-14T20:39:42.005Z,97086.33
2017-12-14T20:45:46.277Z,97086.84
2017-12-14T20:51:50.083Z,97080.95
2017-12-14T20:57:53.731Z,97077.29
2017-12-14T21:03:57.474Z,97074.45
2017-12-14T21:10:01.820Z,97076.25
2017-12-14T21:16:05.701Z,97074.22
2017-12-14T21:22:10.023Z,97067.20
2017-12-14T21:28:13.687Z,97069.67
2017-12-14T21:34:17.418Z,97056.12
2017-12-14T21:40:21.226Z,97046.86
2017-12-14T21:46:24.928Z,97043.02
2017-12-14T21:52:28.530Z,97034.69
2017-12-14T21:58:32.080Z,97033.95
2017-12-14T22:04:36.374Z,97023.16
2017-12-14T22:10:40.067Z,97032.14
2017-12-14T22:16:43.966Z,97023.77
2017-12-14T22:22:48.318Z,97016.44
2017-12-14T22:28:52.122Z,97013.59
2017-12-14T22:34:55.698Z,97015.23
2017-12-14T22:40:59.219Z,97006.72
2017-12-14T22:47:02.872Z,97002.63
2017-12-14T22:53:06.472Z,96995.00
2017-12-14T22:59:10.753Z,97002.33
2017-12-14T23:05:15.026Z,97003.64
2017-12-14T23:11:18.658Z,97000.80
2017-12-14T23:17:22.489Z,96998.67
2017-12-14T23:23:27.607Z,96983.91
2017-12-14T23:29:31.111Z,96970.09
2017-12-14T23:35:35.456Z,96964.00
2017-12-14T23:41:39.821Z,96967.56
2017-12-14T23:47:44.209Z,96955.57
2017-12-14T23:53:48.742Z,96951.59
2017-12-14T23:59:52.835Z,96953.61
